sensor_id;sensor_type;location;lat;lon;timestamp;pressure;altitude;pressure_sealevel;temperature;humidity
26719;BME280;14326;50.794;6.060;2024-02-15T00:00:29;57030.06;;;-142.25;100.00
26719;BME280;14326;50.794;6.060;2024-02-15T00:02:57;57030.06;;;-142.25;100.00
26719;BME280;14326;50.794;6.060;2024-02-15T00:05:24;57030.06;;;-142.25;100.00
26719;BME280;14326;50.794;6.060;2024-02-15T00:07:51;57030.06;;;-142.25;100.00
26719;BME280;14326;50.794;6.060;2024-02-15T00:10:17;57030.06;;;-142.25;100.00
26719;BME280;14326;50.794;6.060;2024-02-15T00:12:45;57030.06;;;-142.25;100.00
26719;BME280;14326;50.794;6.060;2024-02-15T00:15:13;57030.06;;;-142.25;100.00
26719;BME280;14326;50.794;6.060;2024-02-15T00:17:39;57030.06;;;-142.25;100.00
26719;BME280;14326;50.794;6.060;2024-02-15T00:20:08;57030.06;;;-142.25;100.00
26719;BME280;14326;50.794;6.060;2024-02-15T00:22:35;57030.06;;;-142.25;100.00
26719;BME280;14326;50.794;6.060;2024-02-15T00:25:02;57030.06;;;-142.25;100.00
26719;BME280;14326;50.794;6.060;2024-02-15T00:27:30;57030.06;;;-142.25;100.00
26719;BME280;14326;50.794;6.060;2024-02-15T00:29:58;57030.06;;;-142.25;100.00
26719;BME280;14326;50.794;6.060;2024-02-15T00:32:24;57030.06;;;-142.25;100.00
26719;BME280;14326;50.794;6.060;2024-02-15T00:34:51;57030.06;;;-142.25;100.00
26719;BME280;14326;50.794;6.060;2024-02-15T00:37:20;57030.06;;;-142.25;100.00
26719;BME280;14326;50.794;6.060;2024-02-15T00:39:46;57030.06;;;-142.25;100.00
26719;BME280;14326;50.794;6.060;2024-02-15T00:42:13;57030.06;;;-142.25;100.00
26719;BME280;14326;50.794;6.060;2024-02-15T00:44:41;57030.06;;;-142.25;100.00
26719;BME280;14326;50.794;6.060;2024-02-15T00:47:07;57030.06;;;-142.25;100.00
26719;BME280;14326;50.794;6.060;2024-02-15T00:49:34;57030.06;;;-142.25;100.00
26719;BME280;14326;50.794;6.060;2024-02-15T00:52:01;57030.06;;;-142.25;100.00
26719;BME280;14326;50.794;6.060;2024-02-15T00:54:29;57030.06;;;-142.25;100.00
26719;BME280;14326;50.794;6.060;2024-02-15T00:56:55;57030.06;;;-142.25;100.00
26719;BME280;14326;50.794;6.060;2024-02-15T00:59:22;57030.06;;;-142.25;100.00
26719;BME280;14326;50.794;6.060;2024-02-15T01:01:48;57030.06;;;-142.25;100.00
26719;BME280;14326;50.794;6.060;2024-02-15T01:04:15;57030.06;;;-142.25;100.00
26719;BME280;14326;50.794;6.060;2024-02-15T01:06:42;57030.06;;;-142.25;100.00
26719;BME280;14326;50.794;6.060;2024-02-15T01:09:08;57030.06;;;-142.25;100.00
26719;BME280;14326;50.794;6.060;2024-02-15T01:11:37;57030.06;;;-142.25;100.00
26719;BME280;14326;50.794;6.060;2024-02-15T01:14:04;57030.06;;;-142.25;100.00
26719;BME280;14326;50.794;6.060;2024-02-15T01:16:32;57030.06;;;-142.25;100.00
26719;BME280;14326;50.794;6.060;2024-02-15T01:19:00;57030.06;;;-142.25;100.00
26719;BME280;14326;50.794;6.060;2024-02-15T01:21:27;57030.06;;;-142.25;100.00
26719;BME280;14326;50.794;6.060;2024-02-15T01:23:53;57030.06;;;-142.25;100.00
26719;BME280;14326;50.794;6.060;2024-02-15T01:26:20;57030.06;;;-142.25;100.00
26719;BME280;14326;50.794;6.060;2024-02-15T01:28:50;57030.06;;;-142.25;100.00
26719;BME280;14326;50.794;6.060;2024-02-15T01:31:17;57030.06;;;-142.25;100.00
26719;BME280;14326;50.794;6.060;2024-02-15T01:33:43;57030.06;;;-142.25;100.00
26719;BME280;14326;50.794;6.060;2024-02-15T01:36:13;57030.06;;;-142.25;100.00
26719;BME280;14326;50.794;6.060;2024-02-15T01:38:40;57030.06;;;-142.25;100.00
26719;BME280;14326;50.794;6.060;2024-02-15T01:41:07;57030.06;;;-142.25;100.00
26719;BME280;14326;50.794;6.060;2024-02-15T01:43:33;57030.06;;;-142.25;100.00
26719;BME280;14326;50.794;6.060;2024-02-15T01:46:04;57030.06;;;-142.25;100.00
26719;BME280;14326;50.794;6.060;2024-02-15T01:48:36;57030.06;;;-142.25;100.00
26719;BME280;14326;50.794;6.060;2024-02-15T01:51:03;57030.06;;;-142.25;100.00
26719;BME280;14326;50.794;6.060;2024-02-15T01:53:32;57030.06;;;-142.25;100.00
26719;BME280;14326;50.794;6.060;2024-02-15T01:55:59;57030.06;;;-142.25;100.00
26719;BME280;14326;50.794;6.060;2024-02-15T01:58:27;57030.06;;;-142.25;100.00
26719;BME280;14326;50.794;6.060;2024-02-15T02:00:56;57030.06;;;-142.25;100.00
26719;BME280;14326;50.794;6.060;2024-02-15T02:03:24;57030.06;;;-142.25;100.00
26719;BME280;14326;50.794;6.060;2024-02-15T02:05:51;57030.06;;;-142.25;100.00
26719;BME280;14326;50.794;6.060;2024-02-15T02:08:18;57030.06;;;-142.25;100.00
26719;BME280;14326;50.794;6.060;2024-02-15T02:10:44;57030.06;;;-142.25;100.00
26719;BME280;14326;50.794;6.060;2024-02-15T02:13:12;57030.06;;;-142.25;100.00
26719;BME280;14326;50.794;6.060;2024-02-15T02:15:38;57030.06;;;-142.25;100.00
26719;BME280;14326;50.794;6.060;2024-02-15T02:18:05;57030.06;;;-142.25;100.00
26719;BME280;14326;50.794;6.060;2024-02-15T02:20:35;57030.06;;;-142.25;100.00
26719;BME280;14326;50.794;6.060;2024-02-15T02:23:03;57030.06;;;-142.25;100.00
26719;BME280;14326;50.794;6.060;2024-02-15T02:25:34;57030.06;;;-142.25;100.00
26719;BME280;14326;50.794;6.060;2024-02-15T02:28:01;57030.06;;;-142.25;100.00
26719;BME280;14326;50.794;6.060;2024-02-15T02:30:28;57030.06;;;-142.25;100.00
26719;BME280;14326;50.794;6.060;2024-02-15T02:32:55;57030.06;;;-142.25;100.00
26719;BME280;14326;50.794;6.060;2024-02-15T02:35:24;57030.06;;;-142.25;100.00
26719;BME280;14326;50.794;6.060;2024-02-15T02:37:51;57030.06;;;-142.25;100.00
26719;BME280;14326;50.794;6.060;2024-02-15T02:40:18;57030.06;;;-142.25;100.00
26719;BME280;14326;50.794;6.060;2024-02-15T02:42:51;57030.06;;;-142.25;100.00
26719;BME280;14326;50.794;6.060;2024-02-15T02:45:19;57030.06;;;-142.25;100.00
26719;BME280;14326;50.794;6.060;2024-02-15T02:47:47;57030.06;;;-142.25;100.00
26719;BME280;14326;50.794;6.060;2024-02-15T02:50:14;57030.06;;;-142.25;100.00
26719;BME280;14326;50.794;6.060;2024-02-15T02:52:41;57030.06;;;-142.25;100.00
26719;BME280;14326;50.794;6.060;2024-02-15T02:55:09;57030.06;;;-142.25;100.00
26719;BME280;14326;50.794;6.060;2024-02-15T02:57:36;57030.06;;;-142.25;100.00
26719;BME280;14326;50.794;6.060;2024-02-15T03:00:06;57030.06;;;-142.25;100.00
26719;BME280;14326;50.794;6.060;2024-02-15T03:02:36;57030.06;;;-142.25;100.00
26719;BME280;14326;50.794;6.060;2024-02-15T03:05:03;57030.06;;;-142.25;100.00
26719;BME280;14326;50.794;6.060;2024-02-15T03:07:32;57030.06;;;-142.25;100.00
26719;BME280;14326;50.794;6.060;2024-02-15T03:10:00;57030.06;;;-142.25;100.00
26719;BME280;14326;50.794;6.060;2024-02-15T03:12:26;57030.06;;;-142.25;100.00
26719;BME280;14326;50.794;6.060;2024-02-15T03:14:54;57030.06;;;-142.25;100.00
26719;BME280;14326;50.794;6.060;2024-02-15T03:17:23;57030.06;;;-142.25;100.00
26719;BME280;14326;50.794;6.060;2024-02-15T03:19:49;57030.06;;;-142.25;100.00
26719;BME280;14326;50.794;6.060;2024-02-15T03:22:16;57030.06;;;-142.25;100.00
26719;BME280;14326;50.794;6.060;2024-02-15T03:24:43;57030.06;;;-142.25;100.00
26719;BME280;14326;50.794;6.060;2024-02-15T03:27:09;57030.06;;;-142.25;100.00
26719;BME280;14326;50.794;6.060;2024-02-15T03:29:36;57030.06;;;-142.25;100.00
26719;BME280;14326;50.794;6.060;2024-02-15T03:32:03;57030.06;;;-142.25;100.00
26719;BME280;14326;50.794;6.060;2024-02-15T03:34:31;57030.06;;;-142.25;100.00
26719;BME280;14326;50.794;6.060;2024-02-15T03:36:58;57030.06;;;-142.25;100.00
26719;BME280;14326;50.794;6.060;2024-02-15T03:39:25;57030.06;;;-142.25;100.00
26719;BME280;14326;50.794;6.060;2024-02-15T03:41:51;57030.06;;;-142.25;100.00
26719;BME280;14326;50.794;6.060;2024-02-15T03:44:23;57030.06;;;-142.25;100.00
26719;BME280;14326;50.794;6.060;2024-02-15T03:46:51;57030.06;;;-142.25;100.00
26719;BME280;14326;50.794;6.060;2024-02-15T03:49:18;57030.06;;;-142.25;100.00
26719;BME280;14326;50.794;6.060;2024-02-15T03:51:47;57030.06;;;-142.25;100.00
26719;BME280;14326;50.794;6.060;2024-02-15T03:54:14;57030.06;;;-142.25;100.00
26719;BME280;14326;50.794;6.060;2024-02-15T03:56:46;57030.06;;;-142.25;100.00
26719;BME280;14326;50.794;6.060;2024-02-15T03:59:18;57030.06;;;-142.25;100.00
26719;BME280;14326;50.794;6.060;2024-02-15T04:01:47;57030.06;;;-142.25;100.00
26719;BME280;14326;50.794;6.060;2024-02-15T04:04:13;57030.06;;;-142.25;100.00
26719;BME280;14326;50.794;6.060;2024-02-15T04:08:11;99710.31;;;12.49;100.00
26719;BME280;14326;50.794;6.060;2024-02-15T04:10:38;99707.66;;;12.41;100.00
26719;BME280;14326;50.794;6.060;2024-02-15T04:13:04;99711.22;;;12.42;100.00
26719;BME280;14326;50.794;6.060;2024-02-15T04:15:32;99709.44;;;12.41;100.00
26719;BME280;14326;50.794;6.060;2024-02-15T04:17:59;99713.91;;;12.51;100.00
26719;BME280;14326;50.794;6.060;2024-02-15T04:20:25;99705.91;;;12.52;100.00
26719;BME280;14326;50.794;6.060;2024-02-15T04:22:52;99717.50;;;12.59;100.00
26719;BME280;14326;50.794;6.060;2024-02-15T04:25:21;99715.66;;;12.50;100.00
26719;BME280;14326;50.794;6.060;2024-02-15T04:27:53;99723.69;;;12.47;100.00
26719;BME280;14326;50.794;6.060;2024-02-15T04:30:20;99721.91;;;12.51;100.00
26719;BME280;14326;50.794;6.060;2024-02-15T04:32:49;99718.31;;;12.49;100.00
26719;BME280;14326;50.794;6.060;2024-02-15T04:35:17;99726.34;;;12.46;100.00
26719;BME280;14326;50.794;6.060;2024-02-15T04:37:43;99720.13;;;12.53;100.00
26719;BME280;14326;50.794;6.060;2024-02-15T04:40:12;99724.56;;;12.49;100.00
26719;BME280;14326;50.794;6.060;2024-02-15T04:42:40;99725.50;;;12.54;100.00
26719;BME280;14326;50.794;6.060;2024-02-15T04:45:09;99721.94;;;12.54;100.00
26719;BME280;14326;50.794;6.060;2024-02-15T04:47:38;99730.81;;;12.56;100.00
26719;BME280;14326;50.794;6.060;2024-02-15T04:50:07;99729.91;;;12.55;100.00
26719;BME280;14326;50.794;6.060;2024-02-15T04:52:34;99717.47;;;12.57;100.00
26719;BME280;14326;50.794;6.060;2024-02-15T04:55:01;99713.91;;;12.55;100.00
26719;BME280;14326;50.794;6.060;2024-02-15T04:57:30;99711.22;;;12.51;100.00
26719;BME280;14326;50.794;6.060;2024-02-15T04:59:59;99718.34;;;12.55;100.00
26719;BME280;14326;50.794;6.060;2024-02-15T05:02:26;99708.53;;;12.49;100.00
26719;BME280;14326;50.794;6.060;2024-02-15T05:04:53;99713.91;;;12.57;100.00
26719;BME280;14326;50.794;6.060;2024-02-15T05:07:22;99709.47;;;12.59;100.00
26719;BME280;14326;50.794;6.060;2024-02-15T05:09:48;99713.03;;;12.58;100.00
26719;BME280;14326;50.794;6.060;2024-02-15T05:12:22;99711.25;;;12.63;100.00
26719;BME280;14326;50.794;6.060;2024-02-15T05:14:49;99707.72;;;12.73;100.00
26719;BME280;14326;50.794;6.060;2024-02-15T05:17:17;99711.25;;;12.63;100.00
26719;BME280;14326;50.794;6.060;2024-02-15T05:19:44;99707.69;;;12.62;100.00
26719;BME280;14326;50.794;6.060;2024-02-15T05:22:11;99697.94;;;12.64;100.00
26719;BME280;14326;50.794;6.060;2024-02-15T05:24:38;99694.38;;;12.65;100.00
26719;BME280;14326;50.794;6.060;2024-02-15T05:27:05;99693.47;;;12.66;100.00
26719;BME280;14326;50.794;6.060;2024-02-15T05:29:32;99681.91;;;12.69;100.00
26719;BME280;14326;50.794;6.060;2024-02-15T05:31:59;99677.47;;;12.69;100.00
26719;BME280;14326;50.794;6.060;2024-02-15T05:34:28;99678.38;;;12.76;100.00
26719;BME280;14326;50.794;6.060;2024-02-15T05:36:54;99674.81;;;12.76;100.00
26719;BME280;14326;50.794;6.060;2024-02-15T05:39:21;99677.47;;;12.74;100.00
26719;BME280;14326;50.794;6.060;2024-02-15T05:41:48;99677.50;;;12.77;100.00
26719;BME280;14326;50.794;6.060;2024-02-15T05:44:15;99676.59;;;12.78;100.00
26719;BME280;14326;50.794;6.060;2024-02-15T05:46:46;99676.56;;;12.73;100.00
26719;BME280;14326;50.794;6.060;2024-02-15T05:49:12;99676.59;;;12.75;100.00
26719;BME280;14326;50.794;6.060;2024-02-15T05:51:44;99672.16;;;12.77;100.00
26719;BME280;14326;50.794;6.060;2024-02-15T05:54:12;99673.03;;;12.76;100.00
26719;BME280;14326;50.794;6.060;2024-02-15T05:56:39;99670.38;;;12.78;100.00
26719;BME280;14326;50.794;6.060;2024-02-15T05:59:07;99663.25;;;12.81;100.00
26719;BME280;14326;50.794;6.060;2024-02-15T06:01:35;99667.69;;;12.87;100.00
26719;BME280;14326;50.794;6.060;2024-02-15T06:04:02;99666.81;;;12.83;100.00
26719;BME280;14326;50.794;6.060;2024-02-15T06:06:33;99662.38;;;12.87;100.00
26719;BME280;14326;50.794;6.060;2024-02-15T06:09:01;99661.47;;;12.82;100.00
26719;BME280;14326;50.794;6.060;2024-02-15T06:11:30;99648.13;;;12.82;100.00
26719;BME280;14326;50.794;6.060;2024-02-15T06:13:56;99654.34;;;12.76;100.00
26719;BME280;14326;50.794;6.060;2024-02-15T06:16:23;99650.78;;;12.80;100.00
26719;BME280;14326;50.794;6.060;2024-02-15T06:18:49;99652.56;;;12.84;100.00
26719;BME280;14326;50.794;6.060;2024-02-15T06:21:16;99654.34;;;12.79;100.00
26719;BME280;14326;50.794;6.060;2024-02-15T06:23:43;99651.66;;;12.79;100.00
26719;BME280;14326;50.794;6.060;2024-02-15T06:26:11;99663.25;;;12.77;100.00
26719;BME280;14326;50.794;6.060;2024-02-15T06:28:38;99659.69;;;12.76;100.00
26719;BME280;14326;50.794;6.060;2024-02-15T06:31:22;99654.34;;;12.85;100.00
26719;BME280;14326;50.794;6.060;2024-02-15T06:34:03;99655.25;;;12.81;100.00
26719;BME280;14326;50.794;6.060;2024-02-15T06:36:48;99650.78;;;12.74;100.00
26719;BME280;14326;50.794;6.060;2024-02-15T06:39:32;99657.03;;;12.78;100.00
26719;BME280;14326;50.794;6.060;2024-02-15T06:42:09;99654.34;;;12.81;100.00
26719;BME280;14326;50.794;6.060;2024-02-15T06:44:36;99657.03;;;12.84;100.00
26719;BME280;14326;50.794;6.060;2024-02-15T06:47:05;99660.59;;;12.81;100.00
26719;BME280;14326;50.794;6.060;2024-02-15T06:49:34;99659.69;;;12.85;100.00
26719;BME280;14326;50.794;6.060;2024-02-15T06:52:00;99653.44;;;12.85;100.00
26719;BME280;14326;50.794;6.060;2024-02-15T06:54:27;99656.13;;;12.86;100.00
26719;BME280;14326;50.794;6.060;2024-02-15T06:56:54;99653.44;;;12.85;100.00
26719;BME280;14326;50.794;6.060;2024-02-15T06:59:22;99651.69;;;12.84;100.00
26719;BME280;14326;50.794;6.060;2024-02-15T07:01:49;99648.13;;;12.89;100.00
26719;BME280;14326;50.794;6.060;2024-02-15T07:04:17;99641.00;;;12.93;100.00
26719;BME280;14326;50.794;6.060;2024-02-15T07:06:44;99644.56;;;12.90;100.00
26719;BME280;14326;50.794;6.060;2024-02-15T07:09:13;99652.56;;;12.87;100.00
26719;BME280;14326;50.794;6.060;2024-02-15T07:11:41;99652.56;;;12.84;100.00
26719;BME280;14326;50.794;6.060;2024-02-15T07:14:09;99654.34;;;12.81;100.00
26719;BME280;14326;50.794;6.060;2024-02-15T07:16:37;99646.34;;;12.81;100.00
26719;BME280;14326;50.794;6.060;2024-02-15T07:19:04;99654.38;;;12.88;100.00
26719;BME280;14326;50.794;6.060;2024-02-15T07:21:32;99644.56;;;12.92;100.00
26719;BME280;14326;50.794;6.060;2024-02-15T07:23:59;99645.47;;;12.92;100.00
26719;BME280;14326;50.794;6.060;2024-02-15T07:26:25;99649.91;;;12.90;100.00
26719;BME280;14326;50.794;6.060;2024-02-15T07:28:53;99648.16;;;12.95;100.00
26719;BME280;14326;50.794;6.060;2024-02-15T07:31:20;99654.38;;;12.96;100.00
26719;BME280;14326;50.794;6.060;2024-02-15T07:33:50;99659.72;;;12.94;100.00
26719;BME280;14326;50.794;6.060;2024-02-15T07:36:18;99657.91;;;12.93;100.00
26719;BME280;14326;50.794;6.060;2024-02-15T07:38:46;99657.94;;;12.99;100.00
26719;BME280;14326;50.794;6.060;2024-02-15T07:41:13;99661.50;;;13.01;100.00
26719;BME280;14326;50.794;6.060;2024-02-15T07:43:40;99662.34;;;13.02;100.00
26719;BME280;14326;50.794;6.060;2024-02-15T07:46:07;99657.03;;;13.06;100.00
26719;BME280;14326;50.794;6.060;2024-02-15T07:48:34;99655.25;;;13.04;100.00
26719;BME280;14326;50.794;6.060;2024-02-15T07:51:02;99651.69;;;13.14;100.00
26719;BME280;14326;50.794;6.060;2024-02-15T07:53:29;99661.50;;;13.17;100.00
26719;BME280;14326;50.794;6.060;2024-02-15T07:55:56;99663.31;;;13.13;100.00
26719;BME280;14326;50.794;6.060;2024-02-15T07:58:23;99657.97;;;13.19;100.00
26719;BME280;14326;50.794;6.060;2024-02-15T08:00:50;99653.47;;;13.32;100.00
26719;BME280;14326;50.794;6.060;2024-02-15T08:03:16;99650.81;;;13.35;100.00
26719;BME280;14326;50.794;6.060;2024-02-15T08:05:43;99650.81;;;13.42;100.00
26719;BME280;14326;50.794;6.060;2024-02-15T08:08:11;99649.00;;;13.46;100.00
26719;BME280;14326;50.794;6.060;2024-02-15T08:10:38;99657.91;;;13.46;100.00
26719;BME280;14326;50.794;6.060;2024-02-15T08:13:04;99653.47;;;13.48;100.00
26719;BME280;14326;50.794;6.060;2024-02-15T08:15:31;99640.97;;;13.53;100.00
26719;BME280;14326;50.794;6.060;2024-02-15T08:17:58;99651.66;;;13.58;100.00
26719;BME280;14326;50.794;6.060;2024-02-15T08:20:25;99649.84;;;13.66;100.00
26719;BME280;14326;50.794;6.060;2024-02-15T08:22:56;99644.47;;;13.68;100.00
26719;BME280;14326;50.794;6.060;2024-02-15T08:25:25;99643.59;;;13.70;100.00
26719;BME280;14326;50.794;6.060;2024-02-15T08:27:52;99638.19;;;13.88;100.00
26719;BME280;14326;50.794;6.060;2024-02-15T08:30:19;99638.16;;;13.94;100.00
26719;BME280;14326;50.794;6.060;2024-02-15T08:32:45;99636.34;;;14.00;100.00
26719;BME280;14326;50.794;6.060;2024-02-15T08:35:13;99627.41;;;14.04;100.00
26719;BME280;14326;50.794;6.060;2024-02-15T08:37:41;99629.13;;;14.14;100.00
26719;BME280;14326;50.794;6.060;2024-02-15T08:40:09;99625.56;;;14.16;100.00
26719;BME280;14326;50.794;6.060;2024-02-15T08:42:39;99626.47;;;14.18;100.00
26719;BME280;14326;50.794;6.060;2024-02-15T08:45:07;99618.41;;;14.20;100.00
26719;BME280;14326;50.794;6.060;2024-02-15T08:47:36;99621.03;;;14.27;100.00
26719;BME280;14326;50.794;6.060;2024-02-15T08:50:04;99624.69;;;14.17;100.00
26719;BME280;14326;50.794;6.060;2024-02-15T08:52:31;99622.00;;;14.19;100.00
26719;BME280;14326;50.794;6.060;2024-02-15T08:54:58;99627.34;;;14.16;100.00
26719;BME280;14326;50.794;6.060;2024-02-15T08:57:26;99621.97;;;14.25;100.00
26719;BME280;14326;50.794;6.060;2024-02-15T08:59:54;99617.47;;;14.28;98.88
26719;BME280;14326;50.794;6.060;2024-02-15T09:02:20;99619.31;;;14.25;99.18
26719;BME280;14326;50.794;6.060;2024-02-15T09:04:47;99621.00;;;14.37;98.59
26719;BME280;14326;50.794;6.060;2024-02-15T09:07:13;99621.88;;;14.43;97.61
26719;BME280;14326;50.794;6.060;2024-02-15T09:09:40;99623.66;;;14.47;96.94
26719;BME280;14326;50.794;6.060;2024-02-15T09:12:07;99628.03;;;14.56;95.65
26719;BME280;14326;50.794;6.060;2024-02-15T09:14:34;99622.72;;;14.53;97.26
26719;BME280;14326;50.794;6.060;2024-02-15T09:17:04;99631.56;;;14.61;96.75
26719;BME280;14326;50.794;6.060;2024-02-15T09:19:33;99627.97;;;14.66;95.26
26719;BME280;14326;50.794;6.060;2024-02-15T09:22:00;99626.19;;;14.62;95.13
26719;BME280;14326;50.794;6.060;2024-02-15T09:24:26;99630.63;;;14.69;94.96
26719;BME280;14326;50.794;6.060;2024-02-15T09:26:54;99627.06;;;14.67;94.45
26719;BME280;14326;50.794;6.060;2024-02-15T09:29:21;99630.63;;;14.72;94.73
26719;BME280;14326;50.794;6.060;2024-02-15T09:31:47;99631.47;;;14.74;93.70
26719;BME280;14326;50.794;6.060;2024-02-15T09:34:15;99625.28;;;14.69;93.62
26719;BME280;14326;50.794;6.060;2024-02-15T09:36:42;99627.81;;;14.85;94.24
26719;BME280;14326;50.794;6.060;2024-02-15T09:39:09;99634.94;;;14.87;94.26
26719;BME280;14326;50.794;6.060;2024-02-15T09:41:39;99625.09;;;14.92;93.61
26719;BME280;14326;50.794;6.060;2024-02-15T09:44:06;99633.13;;;14.94;92.93
26719;BME280;14326;50.794;6.060;2024-02-15T09:46:34;99636.63;;;14.99;92.68
26719;BME280;14326;50.794;6.060;2024-02-15T09:49:01;99630.41;;;14.97;91.34
26719;BME280;14326;50.794;6.060;2024-02-15T09:51:32;99623.19;;;15.06;91.82
26719;BME280;14326;50.794;6.060;2024-02-15T09:54:00;99631.28;;;15.02;92.22
26719;BME280;14326;50.794;6.060;2024-02-15T09:56:28;99633.94;;;15.02;91.67
26719;BME280;14326;50.794;6.060;2024-02-15T09:58:57;99624.88;;;15.15;91.66
26719;BME280;14326;50.794;6.060;2024-02-15T10:01:27;99632.03;;;15.16;91.00
26719;BME280;14326;50.794;6.060;2024-02-15T10:03:58;99625.69;;;15.25;91.14
26719;BME280;14326;50.794;6.060;2024-02-15T10:06:25;99627.50;;;15.21;91.00
26719;BME280;14326;50.794;6.060;2024-02-15T10:08:53;99622.97;;;15.26;90.99
26719;BME280;14326;50.794;6.060;2024-02-15T10:11:22;99623.81;;;15.33;89.98
26719;BME280;14326;50.794;6.060;2024-02-15T10:13:49;99623.78;;;15.37;89.34
26719;BME280;14326;50.794;6.060;2024-02-15T10:16:16;99627.31;;;15.39;89.55
26719;BME280;14326;50.794;6.060;2024-02-15T10:18:43;99622.00;;;15.35;89.25
26719;BME280;14326;50.794;6.060;2024-02-15T10:21:23;99621.97;;;15.41;89.58
26719;BME280;14326;50.794;6.060;2024-02-15T10:24:02;99613.84;;;15.45;88.38
26719;BME280;14326;50.794;6.060;2024-02-15T10:26:30;99617.41;;;15.49;89.06
26719;BME280;14326;50.794;6.060;2024-02-15T10:29:05;99613.78;;;15.51;88.49
26719;BME280;14326;50.794;6.060;2024-02-15T10:31:34;99611.97;;;15.56;87.52
26719;BME280;14326;50.794;6.060;2024-02-15T10:34:03;99613.75;;;15.61;87.64
26719;BME280;14326;50.794;6.060;2024-02-15T10:36:30;99610.13;;;15.62;87.10
26719;BME280;14326;50.794;6.060;2024-02-15T10:39:12;99616.25;;;15.74;86.59
26719;BME280;14326;50.794;6.060;2024-02-15T10:41:43;99613.56;;;15.73;86.81
26719;BME280;14326;50.794;6.060;2024-02-15T10:44:16;99607.38;;;15.71;84.45
26719;BME280;14326;50.794;6.060;2024-02-15T10:46:44;99609.91;;;15.80;85.95
26719;BME280;14326;50.794;6.060;2024-02-15T10:49:12;99613.56;;;15.76;85.81
26719;BME280;14326;50.794;6.060;2024-02-15T10:51:43;99605.44;;;15.79;85.54
26719;BME280;14326;50.794;6.060;2024-02-15T10:54:15;99600.00;;;15.88;85.77
26719;BME280;14326;50.794;6.060;2024-02-15T10:56:49;99599.94;;;15.92;84.83
26719;BME280;14326;50.794;6.060;2024-02-15T10:59:24;99601.78;;;15.87;85.67
26719;BME280;14326;50.794;6.060;2024-02-15T11:01:59;99600.91;;;15.87;83.81
26719;BME280;14326;50.794;6.060;2024-02-15T11:04:27;99587.41;;;15.91;85.50
26719;BME280;14326;50.794;6.060;2024-02-15T11:06:58;99585.63;;;15.93;85.18
26719;BME280;14326;50.794;6.060;2024-02-15T11:09:27;99581.94;;;16.01;84.10
26719;BME280;14326;50.794;6.060;2024-02-15T11:11:54;99574.63;;;16.13;85.35
26719;BME280;14326;50.794;6.060;2024-02-15T11:14:29;99581.63;;;16.23;82.89
26719;BME280;14326;50.794;6.060;2024-02-15T11:16:57;99581.69;;;16.19;83.70
26719;BME280;14326;50.794;6.060;2024-02-15T11:19:43;99579.94;;;16.16;83.00
26719;BME280;14326;50.794;6.060;2024-02-15T11:22:14;99568.22;;;16.20;83.91
26719;BME280;14326;50.794;6.060;2024-02-15T11:24:52;99576.97;;;16.34;83.79
26719;BME280;14326;50.794;6.060;2024-02-15T11:27:26;99566.16;;;16.39;83.06
26719;BME280;14326;50.794;6.060;2024-02-15T11:29:57;99562.31;;;16.55;83.79
26719;BME280;14326;50.794;6.060;2024-02-15T11:32:36;99559.72;;;16.52;80.09
26719;BME280;14326;50.794;6.060;2024-02-15T11:35:05;99560.50;;;16.57;80.66
26719;BME280;14326;50.794;6.060;2024-02-15T11:37:58;99553.34;;;16.58;80.70
26719;BME280;14326;50.794;6.060;2024-02-15T11:41:02;99553.19;;;16.70;80.03
26719;BME280;14326;50.794;6.060;2024-02-15T11:43:50;99546.91;;;16.71;80.20
26719;BME280;14326;50.794;6.060;2024-02-15T11:46:22;99543.53;;;16.55;80.28
26719;BME280;14326;50.794;6.060;2024-02-15T11:48:51;99538.13;;;16.58;81.01
26719;BME280;14326;50.794;6.060;2024-02-15T11:51:29;99531.88;;;16.61;81.13
26719;BME280;14326;50.794;6.060;2024-02-15T11:54:01;99525.44;;;16.68;80.36
26719;BME280;14326;50.794;6.060;2024-02-15T11:56:33;99527.31;;;16.64;80.61
26719;BME280;14326;50.794;6.060;2024-02-15T11:59:17;99517.38;;;16.69;79.23
26719;BME280;14326;50.794;6.060;2024-02-15T12:01:54;99517.34;;;16.72;79.13
26719;BME280;14326;50.794;6.060;2024-02-15T12:04:39;99506.66;;;16.68;80.55
26719;BME280;14326;50.794;6.060;2024-02-15T12:07:23;99513.94;;;16.61;80.38
26719;BME280;14326;50.794;6.060;2024-02-15T12:10:22;99508.66;;;16.54;80.94
26719;BME280;14326;50.794;6.060;2024-02-15T12:13:07;99494.25;;;16.58;81.15
26719;BME280;14326;50.794;6.060;2024-02-15T12:15:58;99490.06;;;16.43;80.39
26719;BME280;14326;50.794;6.060;2024-02-15T12:18:42;99497.13;;;16.47;80.31
26719;BME280;14326;50.794;6.060;2024-02-15T12:21:12;99489.06;;;16.49;81.12
26719;BME280;14326;50.794;6.060;2024-02-15T12:23:43;99485.53;;;16.44;80.84
26719;BME280;14326;50.794;6.060;2024-02-15T12:26:10;99487.28;;;16.48;79.71
26719;BME280;14326;50.794;6.060;2024-02-15T12:28:41;99472.97;;;16.49;80.56
26719;BME280;14326;50.794;6.060;2024-02-15T12:31:09;99480.06;;;16.50;80.08
26719;BME280;14326;50.794;6.060;2024-02-15T12:33:38;99471.16;;;16.49;80.14
26719;BME280;14326;50.794;6.060;2024-02-15T12:36:06;99470.31;;;16.44;80.48
26719;BME280;14326;50.794;6.060;2024-02-15T12:38:33;99469.41;;;16.47;80.81
26719;BME280;14326;50.794;6.060;2024-02-15T12:41:03;99469.34;;;16.50;80.16
26719;BME280;14326;50.794;6.060;2024-02-15T12:43:30;99471.97;;;16.53;78.93
26719;BME280;14326;50.794;6.060;2024-02-15T12:45:58;99458.66;;;16.48;79.89
26719;BME280;14326;50.794;6.060;2024-02-15T12:48:24;99444.25;;;16.51;79.37
26719;BME280;14326;50.794;6.060;2024-02-15T12:50:52;99440.63;;;16.55;78.20
26719;BME280;14326;50.794;6.060;2024-02-15T12:53:23;99439.66;;;16.60;77.73
26719;BME280;14326;50.794;6.060;2024-02-15T12:55:52;99441.47;;;16.60;79.22
26719;BME280;14326;50.794;6.060;2024-02-15T12:58:20;99435.19;;;16.61;78.70